createdAt,value
2018-03-04T00:01:02.617Z,104.70
2018-03-04T00:03:30.392Z,104.93
2018-03-04T00:05:58.194Z,104.05
2018-03-04T00:08:25.956Z,103.87
2018-03-04T00:10:53.792Z,102.60
2018-03-04T00:13:21.564Z,104.93
2018-03-04T00:15:50.102Z,104.97
2018-03-04T00:18:17.888Z,104.03
2018-03-04T00:20:45.656Z,101.23
2018-03-04T00:23:13.459Z,103.87
2018-03-04T00:25:42.012Z,101.40
2018-03-04T00:28:09.772Z,105.17
2018-03-04T00:30:37.560Z,103.27
2018-03-04T00:33:06.126Z,102.17
2018-03-04T00:35:34.677Z,102.57
2018-03-04T00:38:02.478Z,104.43
2018-03-04T00:40:30.283Z,108.20
2018-03-04T00:42:58.087Z,109.03
2018-03-04T00:45:25.868Z,108.93
2018-03-04T00:47:54.441Z,104.87
2018-03-04T00:50:22.275Z,107.50
2018-03-04T00:52:50.068Z,107.57
2018-03-04T00:55:17.924Z,106.57
2018-03-04T00:57:45.785Z,107.60
2018-03-04T01:00:13.580Z,106.47
2018-03-04T01:02:42.172Z,106.47
2018-03-04T01:05:10.736Z,106.87
2018-03-04T01:07:38.551Z,106.43
2018-03-04T01:10:06.383Z,105.97
2018-03-04T01:12:35.020Z,105.30
2018-03-04T01:15:03.605Z,109.27
2018-03-04T01:17:31.405Z,107.47
2018-03-04T01:19:59.181Z,104.00
2018-03-04T01:22:27.848Z,107.37
2018-03-04T01:24:55.655Z,104.93
2018-03-04T01:27:23.427Z,108.60
2018-03-04T01:29:51.228Z,104.67
2018-03-04T01:32:19.052Z,107.40
2018-03-04T01:34:46.895Z,104.33
2018-03-04T01:37:15.500Z,106.43
2018-03-04T01:39:43.282Z,105.43
2018-03-04T01:42:11.159Z,108.23
2018-03-04T01:44:38.981Z,106.27
2018-03-04T01:47:06.852Z,104.77
2018-03-04T01:49:34.680Z,109.10
2018-03-04T01:52:02.459Z,108.60
2018-03-04T01:54:31.006Z,104.63
2018-03-04T01:56:58.813Z,107.33
2018-03-04T01:59:27.420Z,107.13
2018-03-04T02:01:55.262Z,106.63
2018-03-04T02:04:23.804Z,108.23
2018-03-04T02:06:51.631Z,104.07
2018-03-04T02:09:19.638Z,107.90
2018-03-04T02:11:47.437Z,107.22
2018-03-04T02:14:15.992Z,104.37
2018-03-04T02:16:43.815Z,105.20
2018-03-04T02:19:11.658Z,104.38
2018-03-04T02:21:39.467Z,105.20
2018-03-04T02:24:07.372Z,102.00
2018-03-04T02:26:35.980Z,105.82
2018-03-04T02:29:03.799Z,102.57
2018-03-04T02:31:31.592Z,102.80
2018-03-04T02:33:59.384Z,102.07
2018-03-04T02:36:27.176Z,104.50
2018-03-04T02:38:55.011Z,102.30
2018-03-04T02:41:22.928Z,101.65
2018-03-04T02:43:50.748Z,101.65
2018-03-04T02:46:18.521Z,104.67
2018-03-04T02:48:46.344Z,102.30
2018-03-04T02:51:14.895Z,104.97
2018-03-04T02:53:42.719Z,103.50
2018-03-04T02:56:10.507Z,103.57
2018-03-04T02:58:38.332Z,100.27
2018-03-04T03:01:06.164Z,101.65
2018-03-04T03:03:33.955Z,102.22
2018-03-04T03:06:02.519Z,102.30
2018-03-04T03:08:31.141Z,104.30
2018-03-04T03:10:59.047Z,103.25
2018-03-04T03:13:26.858Z,103.43
2018-03-04T03:15:54.684Z,102.40
2018-03-04T03:18:22.508Z,104.93
2018-03-04T03:20:50.284Z,102.53
2018-03-04T03:23:18.172Z,102.95
2018-03-04T03:25:46.039Z,101.18
2018-03-04T03:28:14.644Z,101.75
2018-03-04T03:30:42.460Z,99.57
2018-03-04T03:33:10.254Z,101.60
2018-03-04T03:35:38.052Z,101.65
2018-03-04T03:38:06.604Z,101.67
2018-03-04T03:40:34.413Z,102.35
2018-03-04T03:43:02.241Z,103.22
2018-03-04T03:45:30.048Z,102.20
2018-03-04T03:47:57.808Z,102.00
2018-03-04T03:50:25.628Z,101.85
2018-03-04T03:52:53.430Z,100.38
2018-03-04T03:55:21.215Z,101.12
2018-03-04T03:57:49.052Z,101.50
2018-03-04T04:00:17.598Z,101.18
2018-03-04T04:02:45.390Z,100.90
2018-03-04T04:05:14.041Z,102.12
2018-03-04T04:07:41.839Z,101.57
2018-03-04T04:10:10.397Z,103.50
2018-03-04T04:12:38.180Z,101.85
2018-03-04T04:15:06.763Z,101.40
2018-03-04T04:17:35.332Z,102.72
2018-03-04T04:20:03.157Z,102.32
2018-03-04T04:22:30.960Z,102.05
2018-03-04T04:24:58.774Z,103.12
2018-03-04T04:27:26.586Z,102.20
2018-03-04T04:29:54.383Z,101.03
2018-03-04T04:32:22.951Z,102.80
2018-03-04T04:34:51.540Z,100.18
2018-03-04T04:37:20.139Z,102.18
2018-03-04T04:39:47.920Z,101.05
2018-03-04T04:42:15.717Z,103.50
2018-03-04T04:44:43.555Z,104.10
2018-03-04T04:47:11.353Z,102.78
2018-03-04T04:49:39.160Z,102.22
2018-03-04T04:52:07.111Z,101.75
2018-03-04T04:54:35.682Z,102.20
2018-03-04T04:57:03.513Z,100.40
2018-03-04T04:59:31.319Z,100.62
2018-03-04T05:02:29.265Z,102.20
2018-03-04T05:04:57.076Z,102.65
2018-03-04T05:07:24.881Z,102.40
2018-03-04T05:09:52.661Z,101.85
2018-03-04T05:12:21.243Z,102.45
2018-03-04T05:14:49.039Z,100.95
2018-03-04T05:17:17.573Z,102.38
2018-03-04T05:19:45.414Z,103.97
2018-03-04T05:22:13.225Z,103.43
2018-03-04T05:24:41.036Z,101.97
2018-03-04T05:27:09.652Z,102.30
2018-03-04T05:29:37.464Z,102.90
2018-03-04T05:32:06.037Z,101.93
2018-03-04T05:34:34.604Z,103.18
2018-03-04T05:37:02.431Z,101.72
2018-03-04T05:39:30.219Z,102.70
2018-03-04T05:41:58.095Z,102.93
2018-03-04T05:44:25.920Z,103.18
2018-03-04T05:46:54.550Z,102.12
2018-03-04T05:49:22.355Z,102.60
2018-03-04T05:51:50.204Z,101.25
2018-03-04T05:54:18.807Z,103.53
2018-03-04T05:56:46.578Z,102.82
2018-03-04T05:59:14.380Z,102.07
2018-03-04T06:01:42.189Z,103.62
2018-03-04T06:04:09.999Z,104.82
2018-03-04T06:06:38.596Z,105.97
2018-03-04T06:09:06.397Z,104.12
2018-03-04T06:11:34.967Z,104.70
2018-03-04T06:14:03.553Z,107.35
2018-03-04T06:16:32.155Z,106.12
2018-03-04T06:18:59.947Z,104.63
2018-03-04T06:21:27.746Z,106.50
2018-03-04T06:23:55.612Z,105.43
2018-03-04T06:26:23.487Z,109.73
2018-03-04T06:28:52.038Z,112.37
2018-03-04T06:31:19.860Z,109.70
2018-03-04T06:33:47.652Z,107.80
2018-03-04T06:36:15.494Z,109.83
2018-03-04T06:38:43.334Z,110.27
2018-03-04T06:41:11.898Z,111.17
2018-03-04T06:43:39.717Z,110.90
2018-03-04T06:46:07.518Z,111.60
2018-03-04T06:48:35.288Z,113.13
2018-03-04T06:51:03.096Z,114.03
2018-03-04T06:53:30.864Z,111.70
2018-03-04T06:55:58.661Z,111.83
2018-03-04T06:58:26.468Z,113.73
2018-03-04T07:00:55.030Z,111.73
2018-03-04T07:03:22.844Z,112.23
2018-03-04T07:05:50.650Z,112.20
2018-03-04T07:08:18.447Z,128.47
2018-03-04T07:10:47.107Z,96.87
2018-03-04T07:13:14.871Z,79.57
2018-03-04T07:15:42.637Z,65.50
2018-03-04T07:18:10.424Z,59.83
2018-03-04T07:20:38.957Z,58.77
2018-03-04T07:23:07.993Z,56.17
2018-03-04T07:25:36.237Z,55.60
2018-03-04T07:28:04.644Z,55.30
2018-03-04T07:30:32.511Z,54.37
2018-03-04T07:33:00.470Z,55.27
2018-03-04T07:35:28.530Z,55.63
2018-03-04T07:37:56.709Z,56.03
2018-03-04T07:40:24.675Z,54.90
2018-03-04T07:42:52.515Z,52.90
2018-03-04T07:45:20.482Z,54.77
2018-03-04T07:47:48.591Z,86.27
2018-03-04T07:50:16.733Z,52.90
2018-03-04T07:52:44.943Z,54.37
2018-03-04T07:55:12.914Z,53.07
2018-03-04T07:57:41.697Z,52.40
2018-03-04T08:00:09.657Z,52.60
2018-03-04T08:02:37.599Z,51.30
2018-03-04T08:05:05.523Z,53.10
2018-03-04T08:07:34.107Z,52.77
2018-03-04T08:10:02.835Z,53.43
2018-03-04T08:12:30.805Z,55.00
2018-03-04T08:14:58.807Z,55.53
2018-03-04T08:17:26.658Z,54.10
2018-03-04T08:19:54.767Z,55.07
2018-03-04T08:22:23.411Z,56.23
2018-03-04T08:25:03.179Z,53.73
2018-03-04T08:27:43.612Z,53.53
2018-03-04T08:30:11.404Z,54.83
2018-03-04T08:32:40.228Z,54.53
2018-03-04T08:35:07.988Z,54.20
2018-03-04T08:37:35.809Z,53.47
2018-03-04T08:40:03.656Z,55.47
2018-03-04T08:42:31.446Z,55.33
2018-03-04T08:44:59.317Z,56.03
2018-03-04T08:47:27.982Z,59.37
2018-03-04T08:49:55.953Z,59.67
2018-03-04T08:52:23.850Z,66.40
2018-03-04T08:54:52.504Z,72.53
2018-03-04T08:57:20.429Z,86.50
2018-03-04T08:59:48.330Z,106.30
2018-03-04T09:02:16.365Z,120.73
2018-03-04T09:04:44.310Z,110.63
2018-03-04T09:07:12.994Z,112.90
2018-03-04T09:09:40.967Z,112.57
2018-03-04T09:12:08.930Z,110.03
2018-03-04T09:14:36.793Z,111.33
2018-03-04T09:17:05.387Z,111.90
2018-03-04T09:19:33.155Z,111.87
2018-03-04T09:22:01.033Z,111.23
2018-03-04T09:24:28.849Z,118.03
2018-03-04T09:26:56.613Z,113.47
2018-03-04T09:29:24.379Z,115.03
2018-03-04T09:31:52.184Z,113.17
2018-03-04T09:34:20.011Z,114.13
2018-03-04T09:36:48.672Z,111.30
2018-03-04T09:39:16.468Z,110.63
2018-03-04T09:41:45.091Z,112.30
2018-03-04T09:44:12.920Z,112.90
2018-03-04T09:46:41.450Z,114.33
2018-03-04T09:49:09.305Z,112.93
2018-03-04T09:51:37.078Z,113.43
2018-03-04T09:54:04.937Z,112.00
2018-03-04T09:56:32.829Z,112.60
2018-03-04T09:59:00.657Z,112.23
2018-03-04T10:01:28.960Z,112.53
2018-03-04T10:03:56.792Z,111.63
2018-03-04T10:06:24.612Z,108.47
2018-03-04T10:08:52.469Z,109.00
2018-03-04T10:11:20.264Z,109.60
2018-03-04T10:13:48.831Z,106.37
2018-03-04T10:16:16.678Z,120.20
2018-03-04T10:18:44.499Z,124.30
2018-03-04T10:21:12.280Z,107.37
2018-03-04T10:23:40.181Z,97.17
2018-03-04T10:26:08.081Z,83.27
2018-03-04T10:28:35.860Z,73.57
2018-03-04T10:31:03.659Z,69.07
2018-03-04T10:33:31.404Z,65.33
2018-03-04T10:35:59.376Z,65.50
2018-03-04T10:38:27.185Z,61.97
2018-03-04T10:40:54.952Z,60.70
2018-03-04T10:43:23.523Z,63.03
2018-03-04T10:45:51.360Z,62.23
2018-03-04T10:48:19.239Z,62.23
2018-03-04T10:50:47.056Z,61.47
2018-03-04T10:53:14.851Z,62.93
2018-03-04T10:55:42.640Z,68.77
2018-03-04T10:58:10.476Z,79.50
2018-03-04T11:00:44.015Z,91.80
2018-03-04T11:03:11.884Z,100.67
2018-03-04T11:05:39.691Z,106.50
2018-03-04T11:08:07.552Z,101.33
2018-03-04T11:10:35.377Z,116.73
2018-03-04T11:13:04.024Z,122.50
2018-03-04T11:15:31.855Z,134.10
2018-03-04T11:17:59.733Z,132.50
2018-03-04T11:20:27.596Z,127.83
2018-03-04T11:22:55.483Z,123.00
2018-03-04T11:25:23.247Z,117.83
2018-03-04T11:27:51.087Z,115.73
2018-03-04T11:30:18.904Z,115.30
2018-03-04T11:32:46.692Z,118.28
2018-03-04T11:35:15.236Z,136.27
2018-03-04T11:37:43.009Z,135.67
2018-03-04T11:40:10.803Z,117.03
2018-03-04T11:42:38.567Z,106.50
2018-03-04T11:45:07.129Z,99.77
2018-03-04T11:47:34.928Z,98.47
2018-03-04T11:50:03.541Z,100.73
2018-03-04T11:52:31.332Z,99.43
2018-03-04T11:54:59.122Z,103.27
2018-03-04T11:57:27.711Z,101.43
2018-03-04T11:59:56.277Z,110.03
2018-03-04T12:02:24.058Z,108.70
2018-03-04T12:04:52.643Z,114.93
2018-03-04T12:07:21.223Z,122.03
2018-03-04T12:09:49.840Z,128.00
2018-03-04T12:12:17.604Z,128.27
2018-03-04T12:14:45.460Z,125.60
2018-03-04T12:17:13.260Z,125.97
2018-03-04T12:19:41.039Z,132.03
2018-03-04T12:22:08.867Z,136.50
2018-03-04T12:24:36.670Z,113.47
2018-03-04T12:27:04.447Z,100.87
2018-03-04T12:29:32.246Z,99.73
2018-03-04T12:32:00.080Z,90.43
2018-03-04T12:34:27.842Z,98.30
2018-03-04T12:36:55.634Z,99.17
2018-03-04T12:39:23.407Z,108.50
2018-03-04T12:41:51.214Z,123.73
2018-03-04T12:44:19.100Z,126.57
2018-03-04T12:46:46.875Z,125.00
2018-03-04T12:49:15.452Z,114.40
2018-03-04T12:51:44.048Z,114.97
2018-03-04T12:54:12.647Z,113.60
2018-03-04T12:56:40.458Z,115.63
2018-03-04T12:59:08.264Z,114.97
2018-03-04T13:01:36.813Z,115.47
2018-03-04T13:04:04.711Z,115.37
2018-03-04T13:06:33.295Z,115.97
2018-03-04T13:09:06.650Z,114.77
2018-03-04T13:11:35.576Z,114.97
2018-03-04T13:14:04.129Z,114.60
2018-03-04T13:16:31.920Z,117.60
2018-03-04T13:19:03.592Z,115.37
2018-03-04T13:24:04.513Z,112.77
2018-03-04T13:26:32.320Z,112.70
2018-03-04T13:29:00.185Z,112.80
2018-03-04T13:31:29.126Z,112.63
2018-03-04T13:33:59.604Z,113.03
2018-03-04T13:36:27.418Z,113.37
2018-03-04T13:38:55.437Z,114.10
2018-03-04T13:41:23.219Z,113.90
2018-03-04T13:43:51.032Z,113.50
2018-03-04T13:46:20.417Z,112.87
2018-03-04T13:51:21.891Z,114.27
2018-03-04T13:53:49.743Z,110.47
2018-03-04T13:56:18.380Z,111.77
2018-03-04T13:58:46.292Z,110.83
2018-03-04T14:01:14.093Z,111.13
2018-03-04T14:03:42.742Z,110.60
2018-03-04T14:06:10.589Z,113.53
2018-03-04T14:08:38.368Z,111.37
2018-03-04T14:11:06.212Z,112.77
2018-03-04T14:13:35.069Z,111.80
2018-03-04T14:16:02.986Z,111.97
2018-03-04T14:18:30.775Z,111.40
2018-03-04T14:20:58.599Z,114.00
2018-03-04T14:23:26.384Z,113.37
2018-03-04T14:25:54.189Z,117.20
2018-03-04T14:28:22.015Z,114.00
2018-03-04T14:30:49.812Z,112.53
2018-03-04T14:33:18.382Z,114.70
2018-03-04T14:35:46.184Z,114.27
2018-03-04T14:38:13.966Z,113.63
2018-03-04T14:40:41.791Z,115.93
2018-03-04T14:43:10.438Z,116.27
2018-03-04T14:48:12.948Z,115.03
2018-03-04T14:50:41.590Z,116.73
2018-03-04T14:53:09.401Z,114.93
2018-03-04T14:55:38.066Z,118.90
2018-03-04T14:58:05.875Z,114.93
2018-03-04T15:00:33.693Z,117.60
2018-03-04T15:03:01.532Z,117.77
2018-03-04T15:05:29.328Z,119.57
2018-03-04T15:07:57.112Z,117.90
2018-03-04T15:10:25.725Z,118.67
2018-03-04T15:12:53.528Z,118.30
2018-03-04T15:15:21.306Z,118.40
2018-03-04T15:17:49.108Z,116.77
2018-03-04T15:20:16.879Z,117.10
2018-03-04T15:22:44.680Z,116.23
2018-03-04T15:25:13.243Z,116.37
2018-03-04T15:27:41.043Z,114.53
2018-03-04T15:30:08.824Z,117.50
2018-03-04T15:32:37.392Z,118.60
2018-03-04T15:35:05.235Z,117.77
2018-03-04T15:37:33.057Z,117.27
2018-03-04T15:40:00.860Z,116.97
2018-03-04T15:42:28.676Z,119.43
2018-03-04T15:44:57.231Z,113.87
2018-03-04T15:47:25.096Z,115.13
2018-03-04T15:49:52.959Z,114.67
2018-03-04T15:52:20.803Z,113.87
2018-03-04T15:54:48.644Z,112.43
2018-03-04T15:57:16.473Z,111.13
2018-03-04T15:59:44.272Z,111.17
2018-03-04T16:02:12.152Z,108.80
2018-03-04T16:04:39.971Z,112.00
2018-03-04T16:07:08.584Z,108.83
2018-03-04T16:09:36.423Z,109.23
2018-03-04T16:12:04.992Z,105.55
2018-03-04T16:14:32.791Z,107.00
2018-03-04T16:17:00.711Z,106.33
2018-03-04T16:19:28.492Z,107.80
2018-03-04T16:21:57.081Z,110.28
2018-03-04T16:24:25.804Z,108.30
2018-03-04T16:26:53.708Z,105.70
2018-03-04T16:29:21.524Z,106.43
2018-03-04T16:31:49.325Z,108.05
2018-03-04T16:34:17.103Z,109.57
2018-03-04T16:36:44.922Z,105.30
2018-03-04T16:39:12.767Z,105.53
2018-03-04T16:41:40.664Z,106.60
2018-03-04T16:44:08.482Z,107.63
2018-03-04T16:46:37.053Z,108.30
2018-03-04T16:49:04.867Z,105.55
2018-03-04T16:51:32.653Z,106.15
2018-03-04T16:54:00.636Z,106.40
2018-03-04T16:56:28.431Z,107.75
2018-03-04T16:58:57.023Z,106.47
2018-03-04T17:01:24.819Z,106.45
2018-03-04T17:03:52.629Z,106.45
2018-03-04T17:06:20.414Z,109.05
2018-03-04T17:08:48.987Z,106.28
2018-03-04T17:11:17.651Z,108.50
2018-03-04T17:13:45.424Z,107.35
2018-03-04T17:16:13.238Z,108.03
2018-03-04T17:18:41.032Z,117.13
2018-03-04T17:21:08.887Z,117.67
2018-03-04T17:23:36.705Z,109.80
2018-03-04T17:26:05.252Z,115.82
2018-03-04T17:28:33.053Z,120.03
2018-03-04T17:31:01.659Z,115.05
2018-03-04T17:33:29.440Z,114.72
2018-03-04T17:35:57.257Z,115.90
2018-03-04T17:38:25.874Z,113.40
2018-03-04T17:40:53.676Z,112.47
2018-03-04T17:43:21.547Z,117.97
2018-03-04T17:45:49.419Z,114.90
2018-03-04T17:48:17.219Z,118.17
2018-03-04T17:50:45.774Z,108.90
2018-03-04T17:53:13.615Z,107.43
2018-03-04T17:55:41.806Z,107.12
2018-03-04T17:58:09.662Z,108.18
2018-03-04T18:00:37.448Z,108.27
2018-03-04T18:03:05.225Z,106.87
2018-03-04T18:05:33.775Z,107.00
2018-03-04T18:08:01.695Z,106.93
2018-03-04T18:10:29.480Z,109.87
2018-03-04T18:12:57.279Z,106.53
2018-03-04T18:15:25.060Z,108.30
2018-03-04T18:17:53.667Z,107.12
2018-03-04T18:20:21.595Z,106.77
2018-03-04T18:22:49.416Z,105.90
2018-03-04T18:25:17.300Z,107.72
2018-03-04T18:27:45.147Z,106.82
2018-03-04T18:30:12.933Z,107.47
2018-03-04T18:32:41.631Z,104.90
2018-03-04T18:35:09.452Z,106.30
2018-03-04T18:37:37.257Z,109.60
2018-03-04T18:40:05.092Z,109.72
2018-03-04T18:42:32.871Z,107.30
2018-03-04T18:45:00.664Z,106.25
2018-03-04T18:47:28.519Z,107.12
2018-03-04T18:49:56.345Z,107.68
2018-03-04T18:52:24.133Z,107.85
2018-03-04T18:54:51.998Z,105.43
2018-03-04T18:57:19.832Z,116.28
2018-03-04T18:59:47.659Z,117.53
2018-03-04T19:02:16.252Z,106.03
2018-03-04T19:04:44.828Z,106.00
2018-03-04T19:07:12.642Z,105.60
2018-03-04T19:09:41.264Z,106.65
2018-03-04T19:12:09.053Z,109.32
2018-03-04T19:14:37.660Z,106.18
2018-03-04T19:17:05.504Z,107.12
2018-03-04T19:19:34.084Z,109.75
2018-03-04T19:22:02.888Z,103.70
2018-03-04T19:24:30.744Z,109.77
2018-03-04T19:26:59.335Z,106.43
2018-03-04T19:29:27.177Z,105.60
2018-03-04T19:31:55.768Z,105.30
2018-03-04T19:34:24.314Z,105.65
2018-03-04T19:36:52.905Z,108.00
2018-03-04T19:39:21.361Z,106.30
2018-03-04T19:41:50.577Z,116.30
2018-03-04T19:44:18.370Z,114.40
2018-03-04T19:46:46.984Z,117.40
2018-03-04T19:49:14.815Z,107.47
2018-03-04T19:51:43.373Z,106.82
2018-03-04T19:54:11.171Z,114.30
2018-03-04T19:56:39.735Z,118.57
2018-03-04T19:59:08.325Z,107.55
2018-03-04T20:01:36.096Z,113.62
2018-03-04T20:04:04.689Z,117.70
2018-03-04T20:06:33.268Z,108.43
2018-03-04T20:09:01.837Z,109.15
2018-03-04T20:11:30.397Z,107.60
2018-03-04T20:13:58.245Z,110.03
2018-03-04T20:16:26.098Z,113.05
2018-03-04T20:18:54.044Z,118.95
2018-03-04T20:21:22.149Z,105.57
2018-03-04T20:23:50.145Z,107.50
2018-03-04T20:26:18.085Z,104.95
2018-03-04T20:28:46.043Z,106.53
2018-03-04T20:31:14.059Z,103.55
2018-03-04T20:33:42.073Z,105.43
2018-03-04T20:36:10.189Z,103.07
2018-03-04T20:38:38.255Z,105.43
2018-03-04T20:41:06.963Z,104.32
2018-03-04T20:43:35.582Z,102.25
2018-03-04T20:46:04.379Z,104.82
2018-03-04T20:48:32.285Z,107.07
2018-03-04T20:51:00.113Z,112.20
2018-03-04T20:53:28.151Z,116.90
2018-03-04T20:55:56.790Z,108.70
2018-03-04T20:58:24.700Z,107.78
2018-03-04T21:00:53.520Z,105.80
2018-03-04T21:03:21.715Z,106.70
2018-03-04T21:05:51.027Z,107.87
2018-03-04T21:08:19.440Z,106.87
2018-03-04T21:10:51.660Z,105.70
2018-03-04T21:13:22.224Z,107.68
2018-03-04T21:15:50.662Z,108.40
2018-03-04T21:18:18.784Z,106.37
2018-03-04T21:20:54.729Z,106.43
2018-03-04T21:23:23.111Z,103.87
2018-03-04T21:25:52.407Z,106.85
2018-03-04T21:28:21.957Z,105.50
2018-03-04T21:30:49.937Z,106.68
2018-03-04T21:33:18.157Z,109.45
2018-03-04T21:35:47.147Z,107.53
2018-03-04T21:38:19.501Z,109.15
2018-03-04T21:40:49.910Z,105.63
2018-03-04T21:43:18.430Z,115.07
2018-03-04T21:45:47.715Z,114.25
2018-03-04T21:48:15.756Z,105.55
2018-03-04T21:50:46.894Z,106.12
2018-03-04T21:53:15.373Z,108.63
2018-03-04T21:55:43.243Z,107.93
2018-03-04T21:58:11.315Z,106.97
2018-03-04T22:00:39.383Z,109.00
2018-03-04T22:03:07.350Z,106.65
2018-03-04T22:05:35.597Z,104.97
2018-03-04T22:08:03.792Z,103.78
2018-03-04T22:10:31.724Z,107.68
2018-03-04T22:13:00.489Z,106.95
2018-03-04T22:15:28.695Z,106.80
2018-03-04T22:17:57.415Z,104.93
2018-03-04T22:20:25.369Z,106.28
2018-03-04T22:22:53.353Z,107.50
2018-03-04T22:25:21.325Z,107.43
2018-03-04T22:27:49.218Z,107.80
2018-03-04T22:30:23.087Z,105.93
2018-03-04T22:32:51.326Z,104.85
2018-03-04T22:35:22.007Z,106.97
2018-03-04T22:37:52.705Z,107.85
2018-03-04T22:40:24.312Z,107.40
2018-03-04T22:42:52.658Z,108.68
2018-03-04T22:45:22.139Z,108.50
2018-03-04T22:47:50.060Z,107.57
2018-03-04T22:50:24.952Z,104.47
2018-03-04T22:52:55.104Z,106.63
2018-03-04T22:55:24.864Z,107.27
2018-03-04T22:57:57.025Z,106.50
2018-03-04T23:00:29.700Z,106.50
2018-03-04T23:03:01.522Z,107.53
2018-03-04T23:05:31.632Z,108.22
2018-03-04T23:11:00.582Z,110.63
2018-03-04T23:18:25.637Z,105.32
2018-03-04T23:21:05.837Z,112.50
2018-03-04T23:27:53.497Z,107.67
2018-03-04T23:30:30.302Z,108.03
2018-03-04T23:33:20.349Z,112.07
2018-03-04T23:35:57.033Z,112.37
2018-03-04T23:41:23.686Z,111.33
2018-03-04T23:44:15.044Z,114.20
2018-03-04T23:49:24.182Z,113.97
2018-03-04T23:51:52.487Z,118.13
2018-03-04T23:54:21.181Z,115.60
2018-03-04T23:56:51.698Z,115.17
2018-03-04T23:59:23.182Z,115.97
